Chelsea, Iowa
Current Conditions -  °F | °C
As of 9:15 PM on Friday 21 Nov 2014 (Local Time) from KGGI Reporting Station
Overcast Overcast  
Wind Chill: 23°   Ceiling: 1800
Heat Index: 32°   Visibility: 10mi
Dew Point: 28°   Wind: 12mph
Humidity: 83%   Direction: 160°SSE
Pressure: 30.07"   Gusts: NA
Location:  41.92°N, 92.39°W
Report Text: KGGI 220315Z AUTO 16010KT 10SM OVC018 00/M02 A3007 RMK AO2 T00011025
Loading
Personal Weather Stations






























Interactive Weather Map New forecast layout! Learn more

10-Day Weather Forecast

Advertisements
Track Severe Weather on mobile